sensor_id;sensor_type;location;lat;lon;timestamp;pressure;altitude;pressure_sealevel;temperature;humidity
41866;BME280;27539;43.222;27.558;2022-09-09T05:14:47;100636.66;;;18.50;100.00
41866;BME280;27539;43.222;27.558;2022-09-09T05:20:31;100691.59;;;19.25;100.00
41866;BME280;27539;43.222;27.558;2022-09-09T05:23:00;100689.41;;;19.40;100.00
41866;BME280;27539;43.222;27.558;2022-09-09T05:25:58;100686.59;;;19.59;100.00
41866;BME280;27539;43.222;27.558;2022-09-09T05:34:26;100686.13;;;20.09;100.00
41866;BME280;27539;43.222;27.558;2022-09-09T05:36:52;100628.66;;;20.00;100.00
41866;BME280;27539;43.222;27.558;2022-09-09T05:39:18;100664.00;;;20.30;100.00
41866;BME280;27539;43.222;27.558;2022-09-09T05:41:43;100654.50;;;20.40;100.00
41866;BME280;27539;43.222;27.558;2022-09-09T05:44:09;100698.97;;;20.81;100.00
41866;BME280;27539;43.222;27.558;2022-09-09T05:46:35;100699.41;;;21.02;100.00
41866;BME280;27539;43.222;27.558;2022-09-09T05:49:02;100672.06;;;20.97;100.00
41866;BME280;27539;43.222;27.558;2022-09-09T05:51:28;100684.00;;;21.22;100.00
41866;BME280;27539;43.222;27.558;2022-09-09T05:53:57;100705.03;;;21.43;100.00
41866;BME280;27539;43.222;27.558;2022-09-09T05:56:28;100670.44;;;21.32;100.00
41866;BME280;27539;43.222;27.558;2022-09-09T05:58:54;100700.63;;;21.65;100.00
41866;BME280;27539;43.222;27.558;2022-09-09T06:01:23;100709.75;;;21.84;100.00
41866;BME280;27539;43.222;27.558;2022-09-09T06:03:50;100666.50;;;21.70;100.00
41866;BME280;27539;43.222;27.558;2022-09-09T06:06:21;100704.63;;;22.09;100.00
41866;BME280;27539;43.222;27.558;2022-09-09T06:08:49;100679.47;;;22.07;100.00
41866;BME280;27539;43.222;27.558;2022-09-09T06:11:21;100716.53;;;22.33;100.00
41866;BME280;27539;43.222;27.558;2022-09-09T06:13:47;100720.50;;;22.55;100.00
41866;BME280;27539;43.222;27.558;2022-09-09T06:16:15;100719.56;;;22.68;100.00
41866;BME280;27539;43.222;27.558;2022-09-09T06:18:41;100720.19;;;22.88;100.00
41866;BME280;27539;43.222;27.558;2022-09-09T06:21:29;100705.00;;;22.92;100.00
41866;BME280;27539;43.222;27.558;2022-09-09T06:23:57;100710.44;;;23.11;100.00
41866;BME280;27539;43.222;27.558;2022-09-09T06:26:30;100709.47;;;23.24;100.00
41866;BME280;27539;43.222;27.558;2022-09-09T06:28:56;100722.91;;;23.41;100.00
41866;BME280;27539;43.222;27.558;2022-09-09T06:31:26;100722.63;;;23.60;100.00
41866;BME280;27539;43.222;27.558;2022-09-09T06:33:53;100723.59;;;23.64;100.00
41866;BME280;27539;43.222;27.558;2022-09-09T06:36:25;100729.34;;;23.73;100.00
41866;BME280;27539;43.222;27.558;2022-09-09T06:38:51;100713.97;;;23.74;100.00
41866;BME280;27539;43.222;27.558;2022-09-09T06:41:19;100709.47;;;23.90;100.00
41866;BME280;27539;43.222;27.558;2022-09-09T06:43:45;100739.38;;;24.14;100.00
41866;BME280;27539;43.222;27.558;2022-09-09T06:46:13;100709.94;;;24.27;100.00
41866;BME280;27539;43.222;27.558;2022-09-09T06:48:40;100702.38;;;24.40;100.00
41866;BME280;27539;43.222;27.558;2022-09-09T06:51:18;100732.31;;;24.64;100.00
41866;BME280;27539;43.222;27.558;2022-09-09T06:53:45;100719.44;;;24.66;100.00
41866;BME280;27539;43.222;27.558;2022-09-09T06:58:37;100695.97;;;24.78;100.00
41866;BME280;27539;43.222;27.558;2022-09-09T07:01:04;100724.84;;;24.97;100.00
41866;BME280;27539;43.222;27.558;2022-09-09T07:03:30;100722.59;;;25.12;100.00
41866;BME280;27539;43.222;27.558;2022-09-09T07:05:56;100731.66;;;25.14;100.00
41866;BME280;27539;43.222;27.558;2022-09-09T07:08:22;100729.97;;;25.21;100.00
41866;BME280;27539;43.222;27.558;2022-09-09T07:10:48;100704.00;;;25.23;100.00
41866;BME280;27539;43.222;27.558;2022-09-09T07:13:13;100726.00;;;25.43;100.00
41866;BME280;27539;43.222;27.558;2022-09-09T07:15:41;100721.44;;;25.51;99.82
41866;BME280;27539;43.222;27.558;2022-09-09T07:18:07;100713.72;;;25.52;95.63
41866;BME280;27539;43.222;27.558;2022-09-09T07:20:34;100707.19;;;25.51;97.13
41866;BME280;27539;43.222;27.558;2022-09-09T07:22:59;100685.94;;;25.19;99.87
41866;BME280;27539;43.222;27.558;2022-09-09T07:25:25;100665.59;;;25.29;100.00
41866;BME280;27539;43.222;27.558;2022-09-09T07:27:54;100709.72;;;25.74;93.14
41866;BME280;27539;43.222;27.558;2022-09-09T07:30:20;100704.84;;;25.53;90.13
41866;BME280;27539;43.222;27.558;2022-09-09T07:32:46;100732.06;;;25.63;87.31
41866;BME280;27539;43.222;27.558;2022-09-09T07:35:11;100726.00;;;25.43;89.37
41866;BME280;27539;43.222;27.558;2022-09-09T07:37:37;100727.63;;;25.74;92.14
41866;BME280;27539;43.222;27.558;2022-09-09T07:40:03;100706.66;;;25.79;92.25
41866;BME280;27539;43.222;27.558;2022-09-09T07:42:30;100727.47;;;25.71;89.05
41866;BME280;27539;43.222;27.558;2022-09-09T07:44:56;100721.09;;;25.74;91.59
41866;BME280;27539;43.222;27.558;2022-09-09T07:47:21;100718.25;;;25.74;89.37
41866;BME280;27539;43.222;27.558;2022-09-09T07:49:47;100722.94;;;25.99;88.63
41866;BME280;27539;43.222;27.558;2022-09-09T07:52:15;100703.88;;;26.12;88.01
41866;BME280;27539;43.222;27.558;2022-09-09T07:54:41;100712.72;;;26.19;85.09
41866;BME280;27539;43.222;27.558;2022-09-09T07:57:07;100689.63;;;26.45;88.85
41866;BME280;27539;43.222;27.558;2022-09-09T07:59:33;100639.66;;;26.27;87.17
41866;BME280;27539;43.222;27.558;2022-09-09T08:01:58;100703.66;;;26.71;88.58
41866;BME280;27539;43.222;27.558;2022-09-09T08:04:25;100694.66;;;26.94;87.33
41866;BME280;27539;43.222;27.558;2022-09-09T08:06:52;100684.53;;;26.84;83.42
41866;BME280;27539;43.222;27.558;2022-09-09T08:09:18;100688.94;;;27.19;81.61
41866;BME280;27539;43.222;27.558;2022-09-09T08:11:45;100653.16;;;27.21;78.87
41866;BME280;27539;43.222;27.558;2022-09-09T08:14:11;100663.59;;;27.42;76.96
41866;BME280;27539;43.222;27.558;2022-09-09T08:16:41;100672.97;;;27.54;72.69
41866;BME280;27539;43.222;27.558;2022-09-09T08:19:07;100677.47;;;27.68;69.87
41866;BME280;27539;43.222;27.558;2022-09-09T08:21:35;100657.25;;;27.48;62.22
41866;BME280;27539;43.222;27.558;2022-09-09T08:24:02;100649.50;;;27.61;60.75
41866;BME280;27539;43.222;27.558;2022-09-09T08:26:36;100599.81;;;27.13;56.75
41866;BME280;27539;43.222;27.558;2022-09-09T08:29:04;100645.34;;;27.58;54.98
41866;BME280;27539;43.222;27.558;2022-09-09T08:31:32;100654.59;;;27.68;53.29
41866;BME280;27539;43.222;27.558;2022-09-09T08:33:59;100657.44;;;27.80;52.22
41866;BME280;27539;43.222;27.558;2022-09-09T08:36:27;100651.16;;;27.74;53.46
41866;BME280;27539;43.222;27.558;2022-09-09T08:38:56;100654.06;;;28.03;50.91
41866;BME280;27539;43.222;27.558;2022-09-09T08:41:30;100655.19;;;28.14;48.24
41866;BME280;27539;43.222;27.558;2022-09-09T08:47:14;100650.13;;;28.23;49.93
41866;BME280;27539;43.222;27.558;2022-09-09T08:49:59;100652.72;;;28.28;47.48
41866;BME280;27539;43.222;27.558;2022-09-09T08:53:03;100644.44;;;28.67;48.00
41866;BME280;27539;43.222;27.558;2022-09-09T08:58:18;100614.09;;;28.34;47.21
41866;BME280;27539;43.222;27.558;2022-09-09T09:09:03;100642.59;;;28.75;42.60
41866;BME280;27539;43.222;27.558;2022-09-09T09:11:39;100644.34;;;28.79;42.71
41866;BME280;27539;43.222;27.558;2022-09-09T09:14:18;100620.78;;;28.70;44.65
41866;BME280;27539;43.222;27.558;2022-09-09T09:17:00;100631.78;;;28.52;45.34
41866;BME280;27539;43.222;27.558;2022-09-09T09:19:28;100633.16;;;28.14;46.48
41866;BME280;27539;43.222;27.558;2022-09-09T09:24:45;100645.06;;;28.60;44.10
41866;BME280;27539;43.222;27.558;2022-09-09T09:27:16;100647.38;;;28.71;43.80
41866;BME280;27539;43.222;27.558;2022-09-09T09:29:44;100621.06;;;28.49;42.75
41866;BME280;27539;43.222;27.558;2022-09-09T09:32:16;100652.00;;;28.91;44.42
41866;BME280;27539;43.222;27.558;2022-09-09T09:34:49;100645.16;;;28.96;42.17
41866;BME280;27539;43.222;27.558;2022-09-09T09:37:31;100640.00;;;29.17;43.55
41866;BME280;27539;43.222;27.558;2022-09-09T09:40:12;100630.16;;;29.34;41.37
41866;BME280;27539;43.222;27.558;2022-09-09T09:42:59;100619.84;;;29.49;41.72
41866;BME280;27539;43.222;27.558;2022-09-09T09:45:31;100613.34;;;29.33;40.78
41866;BME280;27539;43.222;27.558;2022-09-09T09:48:02;100617.81;;;29.49;40.81
41866;BME280;27539;43.222;27.558;2022-09-09T09:50:29;100609.88;;;29.43;41.53
41866;BME280;27539;43.222;27.558;2022-09-09T09:52:57;100608.38;;;29.49;40.51
41866;BME280;27539;43.222;27.558;2022-09-09T09:55:23;100606.44;;;29.53;41.19
41866;BME280;27539;43.222;27.558;2022-09-09T09:57:50;100618.81;;;29.57;41.11
41866;BME280;27539;43.222;27.558;2022-09-09T10:00:19;100600.38;;;29.39;40.13
41866;BME280;27539;43.222;27.558;2022-09-09T10:02:47;100598.34;;;29.59;41.13
41866;BME280;27539;43.222;27.558;2022-09-09T10:05:23;100601.19;;;29.39;39.71
41866;BME280;27539;43.222;27.558;2022-09-09T10:08:20;100614.31;;;29.76;40.74
41866;BME280;27539;43.222;27.558;2022-09-09T10:10:51;100616.78;;;29.58;40.30
41866;BME280;27539;43.222;27.558;2022-09-09T10:15:56;100566.09;;;29.81;40.86
41866;BME280;27539;43.222;27.558;2022-09-09T10:19:03;100597.97;;;29.41;39.50
41866;BME280;27539;43.222;27.558;2022-09-09T10:24:39;100586.97;;;30.01;38.96
41866;BME280;27539;43.222;27.558;2022-09-09T10:48:56;100584.56;;;30.03;40.59
41866;BME280;27539;43.222;27.558;2022-09-09T10:51:43;100577.78;;;29.92;38.60
41866;BME280;27539;43.222;27.558;2022-09-09T10:54:21;100561.34;;;29.89;38.27
41866;BME280;27539;43.222;27.558;2022-09-09T10:56:54;100583.53;;;29.73;38.57
41866;BME280;27539;43.222;27.558;2022-09-09T10:59:33;100580.63;;;29.92;37.59
41866;BME280;27539;43.222;27.558;2022-09-09T11:02:30;100575.72;;;30.12;36.92
41866;BME280;27539;43.222;27.558;2022-09-09T11:05:03;100576.22;;;29.75;36.18
41866;BME280;27539;43.222;27.558;2022-09-09T11:07:40;100554.69;;;29.46;35.52
41866;BME280;27539;43.222;27.558;2022-09-09T11:12:49;100592.31;;;29.80;35.88
41866;BME280;27539;43.222;27.558;2022-09-09T11:15:33;100580.59;;;29.69;35.95
41866;BME280;27539;43.222;27.558;2022-09-09T11:18:01;100536.88;;;29.17;36.80
41866;BME280;27539;43.222;27.558;2022-09-09T11:20:29;100556.38;;;29.66;37.94
41866;BME280;27539;43.222;27.558;2022-09-09T11:23:10;100557.94;;;29.83;36.82
41866;BME280;27539;43.222;27.558;2022-09-09T11:25:59;100570.22;;;29.64;36.34
41866;BME280;27539;43.222;27.558;2022-09-09T11:36:34;100534.66;;;29.65;35.66
41866;BME280;27539;43.222;27.558;2022-09-09T11:41:36;100549.06;;;30.11;35.31
41866;BME280;27539;43.222;27.558;2022-09-09T11:44:11;100545.44;;;30.14;35.04
41866;BME280;27539;43.222;27.558;2022-09-09T11:46:38;100537.28;;;30.17;34.72
41866;BME280;27539;43.222;27.558;2022-09-09T11:49:26;100534.34;;;30.32;34.78
41866;BME280;27539;43.222;27.558;2022-09-09T11:51:52;100533.38;;;30.48;35.01
41866;BME280;27539;43.222;27.558;2022-09-09T11:54:32;100546.34;;;30.65;34.96
41866;BME280;27539;43.222;27.558;2022-09-09T11:57:04;100544.09;;;30.28;34.71
41866;BME280;27539;43.222;27.558;2022-09-09T11:59:50;100533.81;;;30.27;36.21
41866;BME280;27539;43.222;27.558;2022-09-09T12:02:25;100534.63;;;30.50;35.90
41866;BME280;27539;43.222;27.558;2022-09-09T12:05:08;100526.59;;;29.94;36.91
41866;BME280;27539;43.222;27.558;2022-09-09T12:07:49;100506.88;;;29.69;36.66
41866;BME280;27539;43.222;27.558;2022-09-09T12:12:47;100511.06;;;29.95;35.91
41866;BME280;27539;43.222;27.558;2022-09-09T12:17:45;100526.56;;;30.13;37.00
41866;BME280;27539;43.222;27.558;2022-09-09T12:28:15;100522.69;;;30.02;35.88
41866;BME280;27539;43.222;27.558;2022-09-09T12:33:18;100492.00;;;30.06;35.39
41866;BME280;27539;43.222;27.558;2022-09-09T12:35:49;100493.06;;;29.75;35.93
41866;BME280;27539;43.222;27.558;2022-09-09T12:38:37;100508.31;;;29.60;35.83
41866;BME280;27539;43.222;27.558;2022-09-09T12:41:04;100501.19;;;29.34;36.49
41866;BME280;27539;43.222;27.558;2022-09-09T12:43:29;100504.16;;;29.38;35.72
41866;BME280;27539;43.222;27.558;2022-09-09T12:45:59;100498.72;;;29.71;35.25
41866;BME280;27539;43.222;27.558;2022-09-09T12:48:31;100515.59;;;29.96;36.09
41866;BME280;27539;43.222;27.558;2022-09-09T12:50:57;100507.34;;;29.94;35.40
41866;BME280;27539;43.222;27.558;2022-09-09T12:53:28;100505.41;;;29.79;35.55
41866;BME280;27539;43.222;27.558;2022-09-09T12:55:57;100507.44;;;29.59;36.73
41866;BME280;27539;43.222;27.558;2022-09-09T12:58:25;100477.97;;;29.78;37.08
41866;BME280;27539;43.222;27.558;2022-09-09T13:00:54;100506.78;;;29.85;36.51
41866;BME280;27539;43.222;27.558;2022-09-09T13:03:23;100490.78;;;29.84;38.97
41866;BME280;27539;43.222;27.558;2022-09-09T13:05:51;100490.81;;;30.07;39.77
41866;BME280;27539;43.222;27.558;2022-09-09T13:08:17;100489.16;;;30.29;46.04
41866;BME280;27539;43.222;27.558;2022-09-09T13:11:01;100464.03;;;30.23;48.75
41866;BME280;27539;43.222;27.558;2022-09-09T13:13:35;100492.31;;;30.01;48.98
41866;BME280;27539;43.222;27.558;2022-09-09T13:16:02;100485.31;;;29.99;55.06
41866;BME280;27539;43.222;27.558;2022-09-09T13:18:40;100484.34;;;29.91;53.22
41866;BME280;27539;43.222;27.558;2022-09-09T13:21:07;100453.78;;;29.37;50.90
41866;BME280;27539;43.222;27.558;2022-09-09T13:23:35;100477.78;;;29.67;58.83
41866;BME280;27539;43.222;27.558;2022-09-09T13:26:03;100467.94;;;29.68;61.55
41866;BME280;27539;43.222;27.558;2022-09-09T13:28:31;100461.19;;;30.00;62.81
41866;BME280;27539;43.222;27.558;2022-09-09T13:31:05;100478.16;;;30.12;62.36
41866;BME280;27539;43.222;27.558;2022-09-09T13:33:34;100475.03;;;29.55;64.52
41866;BME280;27539;43.222;27.558;2022-09-09T13:36:08;100473.97;;;29.44;67.84
41866;BME280;27539;43.222;27.558;2022-09-09T13:38:53;100462.22;;;29.49;71.53
41866;BME280;27539;43.222;27.558;2022-09-09T13:41:22;100451.19;;;29.51;67.79
41866;BME280;27539;43.222;27.558;2022-09-09T13:43:49;100465.38;;;29.44;68.81
41866;BME280;27539;43.222;27.558;2022-09-09T13:46:35;100479.56;;;29.56;69.14
41866;BME280;27539;43.222;27.558;2022-09-09T13:51:37;100456.94;;;29.32;71.50
41866;BME280;27539;43.222;27.558;2022-09-09T13:54:09;100438.25;;;29.18;70.10
41866;BME280;27539;43.222;27.558;2022-09-09T13:56:36;100452.63;;;29.41;69.42
41866;BME280;27539;43.222;27.558;2022-09-09T13:59:04;100478.22;;;29.31;67.65
41866;BME280;27539;43.222;27.558;2022-09-09T14:01:30;100457.63;;;29.25;67.50
41866;BME280;27539;43.222;27.558;2022-09-09T14:03:56;100414.72;;;29.28;67.10
41866;BME280;27539;43.222;27.558;2022-09-09T14:06:22;100460.13;;;29.65;65.78
41866;BME280;27539;43.222;27.558;2022-09-09T14:08:51;100453.44;;;29.61;64.33
41866;BME280;27539;43.222;27.558;2022-09-09T14:11:18;100463.13;;;29.73;63.77
41866;BME280;27539;43.222;27.558;2022-09-09T14:13:43;100442.34;;;29.79;61.84
41866;BME280;27539;43.222;27.558;2022-09-09T14:16:09;100437.06;;;29.81;61.19
41866;BME280;27539;43.222;27.558;2022-09-09T14:18:35;100419.31;;;29.72;61.39
41866;BME280;27539;43.222;27.558;2022-09-09T14:21:01;100463.72;;;29.62;60.47
41866;BME280;27539;43.222;27.558;2022-09-09T14:23:27;100462.34;;;29.56;62.22
41866;BME280;27539;43.222;27.558;2022-09-09T14:25:53;100453.44;;;29.61;61.55
41866;BME280;27539;43.222;27.558;2022-09-09T14:28:18;100468.53;;;29.58;62.88
41866;BME280;27539;43.222;27.558;2022-09-09T14:30:44;100442.59;;;29.51;64.62
41866;BME280;27539;43.222;27.558;2022-09-09T14:33:11;100456.31;;;29.61;67.72
41866;BME280;27539;43.222;27.558;2022-09-09T14:35:37;100440.25;;;29.57;67.81
41866;BME280;27539;43.222;27.558;2022-09-09T14:38:04;100450.75;;;29.68;66.85
41866;BME280;27539;43.222;27.558;2022-09-09T14:40:30;100441.00;;;29.54;68.32
41866;BME280;27539;43.222;27.558;2022-09-09T14:42:55;100432.81;;;29.33;71.42
41866;BME280;27539;43.222;27.558;2022-09-09T14:45:24;100441.88;;;29.35;73.78
41866;BME280;27539;43.222;27.558;2022-09-09T14:47:51;100454.31;;;29.42;75.85
41866;BME280;27539;43.222;27.558;2022-09-09T14:50:18;100446.69;;;29.50;75.34
41866;BME280;27539;43.222;27.558;2022-09-09T14:52:43;100456.22;;;29.35;74.78
41866;BME280;27539;43.222;27.558;2022-09-09T14:55:09;100447.91;;;29.29;75.62
41866;BME280;27539;43.222;27.558;2022-09-09T14:57:35;100455.69;;;29.10;77.27
41866;BME280;27539;43.222;27.558;2022-09-09T15:00:03;100453.19;;;28.73;77.78
41866;BME280;27539;43.222;27.558;2022-09-09T15:02:29;100424.47;;;28.02;81.03
41866;BME280;27539;43.222;27.558;2022-09-09T15:04:55;100459.19;;;28.68;81.11
41866;BME280;27539;43.222;27.558;2022-09-09T15:07:23;100462.53;;;28.70;81.42
41866;BME280;27539;43.222;27.558;2022-09-09T15:09:49;100458.91;;;28.73;80.27
41866;BME280;27539;43.222;27.558;2022-09-09T15:12:15;100446.34;;;28.61;81.36
41866;BME280;27539;43.222;27.558;2022-09-09T15:14:44;100453.59;;;28.39;82.29
41866;BME280;27539;43.222;27.558;2022-09-09T15:17:09;100453.06;;;28.02;84.27
41866;BME280;27539;43.222;27.558;2022-09-09T15:19:35;100463.00;;;28.08;85.46
41866;BME280;27539;43.222;27.558;2022-09-09T15:22:02;100448.16;;;27.87;87.68
41866;BME280;27539;43.222;27.558;2022-09-09T15:24:27;100455.41;;;27.40;90.88
41866;BME280;27539;43.222;27.558;2022-09-09T15:26:53;100430.75;;;27.20;91.74
41866;BME280;27539;43.222;27.558;2022-09-09T15:29:19;100448.25;;;27.18;93.39
41866;BME280;27539;43.222;27.558;2022-09-09T15:31:44;100453.81;;;27.14;95.13
41866;BME280;27539;43.222;27.558;2022-09-09T15:34:10;100431.59;;;26.67;97.31
41866;BME280;27539;43.222;27.558;2022-09-09T15:36:41;100465.06;;;26.95;97.82
41866;BME280;27539;43.222;27.558;2022-09-09T15:39:12;100462.84;;;26.76;99.97
41866;BME280;27539;43.222;27.558;2022-09-09T15:41:41;100479.72;;;26.20;100.00
41866;BME280;27539;43.222;27.558;2022-09-09T15:44:06;100445.63;;;25.99;100.00
41866;BME280;27539;43.222;27.558;2022-09-09T15:46:37;100450.91;;;25.76;100.00
41866;BME280;27539;43.222;27.558;2022-09-09T15:49:29;100477.16;;;25.81;100.00
41866;BME280;27539;43.222;27.558;2022-09-09T15:51:59;100482.78;;;25.57;100.00
41866;BME280;27539;43.222;27.558;2022-09-09T15:54:31;100481.06;;;25.22;100.00
41866;BME280;27539;43.222;27.558;2022-09-09T15:56:59;100463.50;;;24.99;100.00
41866;BME280;27539;43.222;27.558;2022-09-09T15:59:26;100451.84;;;24.92;100.00
41866;BME280;27539;43.222;27.558;2022-09-09T16:01:53;100487.00;;;24.88;100.00
41866;BME280;27539;43.222;27.558;2022-09-09T16:04:21;100487.88;;;24.88;100.00
41866;BME280;27539;43.222;27.558;2022-09-09T16:09:24;100482.38;;;24.83;100.00
41866;BME280;27539;43.222;27.558;2022-09-09T16:11:50;100492.72;;;24.88;100.00
41866;BME280;27539;43.222;27.558;2022-09-09T16:14:16;100492.78;;;24.79;100.00
41866;BME280;27539;43.222;27.558;2022-09-09T16:16:42;100487.34;;;24.65;100.00
41866;BME280;27539;43.222;27.558;2022-09-09T16:19:10;100483.66;;;24.65;100.00
41866;BME280;27539;43.222;27.558;2022-09-09T16:21:39;100494.94;;;24.23;100.00
41866;BME280;27539;43.222;27.558;2022-09-09T16:24:06;100512.44;;;24.25;100.00
41866;BME280;27539;43.222;27.558;2022-09-09T16:26:32;100516.09;;;24.34;100.00
41866;BME280;27539;43.222;27.558;2022-09-09T16:28:59;100501.56;;;24.27;100.00
41866;BME280;27539;43.222;27.558;2022-09-09T16:31:25;100488.16;;;23.98;100.00
41866;BME280;27539;43.222;27.558;2022-09-09T16:33:51;100513.69;;;24.06;100.00
41866;BME280;27539;43.222;27.558;2022-09-09T16:36:25;100509.03;;;24.02;100.00
41866;BME280;27539;43.222;27.558;2022-09-09T16:38:56;100505.91;;;23.86;100.00
41866;BME280;27539;43.222;27.558;2022-09-09T16:41:23;100481.03;;;23.83;100.00
41866;BME280;27539;43.222;27.558;2022-09-09T16:44:00;100508.91;;;23.89;100.00
41866;BME280;27539;43.222;27.558;2022-09-09T16:46:28;100503.91;;;23.69;100.00
41866;BME280;27539;43.222;27.558;2022-09-09T16:48:57;100521.78;;;23.69;100.00
41866;BME280;27539;43.222;27.558;2022-09-09T16:51:29;100481.88;;;23.57;100.00
41866;BME280;27539;43.222;27.558;2022-09-09T16:53:58;100476.22;;;23.40;100.00
41866;BME280;27539;43.222;27.558;2022-09-09T16:56:26;100512.09;;;23.62;100.00
41866;BME280;27539;43.222;27.558;2022-09-09T16:58:54;100504.13;;;23.55;100.00
41866;BME280;27539;43.222;27.558;2022-09-09T17:01:24;100524.16;;;23.59;100.00
41866;BME280;27539;43.222;27.558;2022-09-09T17:03:59;100518.16;;;23.60;100.00
41866;BME280;27539;43.222;27.558;2022-09-09T17:06:29;100506.28;;;23.41;100.00
41866;BME280;27539;43.222;27.558;2022-09-09T17:08:57;100516.47;;;23.50;100.00
41866;BME280;27539;43.222;27.558;2022-09-09T17:11:23;100539.00;;;23.64;100.00
41866;BME280;27539;43.222;27.558;2022-09-09T17:13:49;100541.84;;;23.47;100.00
41866;BME280;27539;43.222;27.558;2022-09-09T17:16:17;100544.53;;;23.35;100.00
41866;BME280;27539;43.222;27.558;2022-09-09T17:18:43;100544.34;;;23.40;100.00
41866;BME280;27539;43.222;27.558;2022-09-09T17:21:12;100550.22;;;23.43;100.00
41866;BME280;27539;43.222;27.558;2022-09-09T17:23:39;100548.38;;;23.30;100.00
41866;BME280;27539;43.222;27.558;2022-09-09T17:26:07;100551.38;;;23.42;100.00
41866;BME280;27539;43.222;27.558;2022-09-09T17:28:34;100554.91;;;23.48;100.00
41866;BME280;27539;43.222;27.558;2022-09-09T17:31:00;100523.81;;;23.17;100.00
41866;BME280;27539;43.222;27.558;2022-09-09T17:33:29;100524.31;;;23.01;100.00
41866;BME280;27539;43.222;27.558;2022-09-09T17:35:59;100548.19;;;23.00;100.00
41866;BME280;27539;43.222;27.558;2022-09-09T17:38:26;100554.38;;;23.11;100.00
41866;BME280;27539;43.222;27.558;2022-09-09T17:41:13;100574.94;;;23.25;100.00
41866;BME280;27539;43.222;27.558;2022-09-09T17:43:39;100582.94;;;23.23;100.00
41866;BME280;27539;43.222;27.558;2022-09-09T17:46:07;100587.78;;;23.23;100.00
41866;BME280;27539;43.222;27.558;2022-09-09T17:48:33;100578.44;;;23.22;100.00
41866;BME280;27539;43.222;27.558;2022-09-09T17:50:59;100590.94;;;23.21;100.00
41866;BME280;27539;43.222;27.558;2022-09-09T17:53:25;100557.06;;;23.07;100.00
41866;BME280;27539;43.222;27.558;2022-09-09T17:55:51;100589.44;;;23.24;100.00
41866;BME280;27539;43.222;27.558;2022-09-09T17:58:17;100584.44;;;23.21;100.00
41866;BME280;27539;43.222;27.558;2022-09-09T18:00:42;100586.78;;;23.27;100.00
41866;BME280;27539;43.222;27.558;2022-09-09T18:03:08;100587.13;;;23.26;100.00
41866;BME280;27539;43.222;27.558;2022-09-09T18:05:34;100590.78;;;23.18;100.00
41866;BME280;27539;43.222;27.558;2022-09-09T18:07:59;100593.09;;;23.07;100.00
41866;BME280;27539;43.222;27.558;2022-09-09T18:10:25;100585.75;;;23.06;100.00
41866;BME280;27539;43.222;27.558;2022-09-09T18:12:51;100570.38;;;22.98;100.00
41866;BME280;27539;43.222;27.558;2022-09-09T18:15:17;100595.28;;;23.10;100.00
41866;BME280;27539;43.222;27.558;2022-09-09T18:17:43;100594.84;;;22.94;100.00
41866;BME280;27539;43.222;27.558;2022-09-09T18:20:08;100588.06;;;23.04;100.00
41866;BME280;27539;43.222;27.558;2022-09-09T18:22:35;100539.44;;;22.71;100.00
41866;BME280;27539;43.222;27.558;2022-09-09T18:25:01;100582.84;;;22.89;100.00
41866;BME280;27539;43.222;27.558;2022-09-09T18:27:26;100591.03;;;22.90;100.00
41866;BME280;27539;43.222;27.558;2022-09-09T18:29:53;100587.34;;;22.90;100.00
41866;BME280;27539;43.222;27.558;2022-09-09T18:32:18;100585.22;;;22.95;100.00
41866;BME280;27539;43.222;27.558;2022-09-09T18:34:44;100590.16;;;22.90;100.00
41866;BME280;27539;43.222;27.558;2022-09-09T18:37:09;100587.03;;;22.91;100.00
41866;BME280;27539;43.222;27.558;2022-09-09T18:39:35;100585.41;;;22.99;100.00
41866;BME280;27539;43.222;27.558;2022-09-09T18:42:00;100590.25;;;22.98;100.00
41866;BME280;27539;43.222;27.558;2022-09-09T18:44:32;100593.25;;;23.02;100.00
41866;BME280;27539;43.222;27.558;2022-09-09T18:46:58;100590.00;;;22.95;100.00
41866;BME280;27539;43.222;27.558;2022-09-09T18:49:24;100587.09;;;23.00;100.00
41866;BME280;27539;43.222;27.558;2022-09-09T18:51:51;100588.06;;;23.04;100.00
41866;BME280;27539;43.222;27.558;2022-09-09T18:54:21;100596.44;;;23.09;100.00
41866;BME280;27539;43.222;27.558;2022-09-09T18:56:47;100594.09;;;23.02;100.00
41866;BME280;27539;43.222;27.558;2022-09-09T18:59:16;100597.41;;;23.04;100.00
41866;BME280;27539;43.222;27.558;2022-09-09T19:01:44;100574.50;;;22.92;100.00
41866;BME280;27539;43.222;27.558;2022-09-09T19:04:11;100592.25;;;23.06;100.00
41866;BME280;27539;43.222;27.558;2022-09-09T19:06:40;100582.25;;;23.00;100.00
41866;BME280;27539;43.222;27.558;2022-09-09T19:09:09;100590.41;;;23.02;100.00
41866;BME280;27539;43.222;27.558;2022-09-09T19:11:35;100591.19;;;22.85;100.00
41866;BME280;27539;43.222;27.558;2022-09-09T19:14:03;100548.75;;;22.62;100.00
41866;BME280;27539;43.222;27.558;2022-09-09T19:16:31;100575.56;;;23.05;100.00
41866;BME280;27539;43.222;27.558;2022-09-09T19:19:03;100584.75;;;23.11;100.00
41866;BME280;27539;43.222;27.558;2022-09-09T19:21:35;100595.53;;;22.91;100.00
41866;BME280;27539;43.222;27.558;2022-09-09T19:24:03;100564.28;;;22.65;100.00
41866;BME280;27539;43.222;27.558;2022-09-09T19:26:33;100585.31;;;22.81;100.00
41866;BME280;27539;43.222;27.558;2022-09-09T19:29:01;100586.19;;;22.91;100.00
41866;BME280;27539;43.222;27.558;2022-09-09T19:31:27;100555.50;;;22.93;100.00